sensor_id;sensor_type;location;lat;lon;timestamp;P1;durP1;ratioP1;P2;durP2;ratioP2
13071;SDS011;6602;58.934;11.166;2023-05-29T00:00:20;1.67;;;1.00;;
13071;SDS011;6602;58.934;11.166;2023-05-29T00:05:23;0.63;;;0.63;;
13071;SDS011;6602;58.934;11.166;2023-05-29T00:10:24;0.80;;;0.80;;
13071;SDS011;6602;58.934;11.166;2023-05-29T00:15:25;2.00;;;0.93;;
13071;SDS011;6602;58.934;11.166;2023-05-29T00:20:27;0.83;;;0.80;;
13071;SDS011;6602;58.934;11.166;2023-05-29T00:25:31;1.50;;;0.67;;
13071;SDS011;6602;58.934;11.166;2023-05-29T00:30:35;2.37;;;0.93;;
13071;SDS011;6602;58.934;11.166;2023-05-29T00:35:39;1.53;;;0.80;;
13071;SDS011;6602;58.934;11.166;2023-05-29T00:40:42;1.10;;;0.70;;
13071;SDS011;6602;58.934;11.166;2023-05-29T00:45:43;1.13;;;0.70;;
13071;SDS011;6602;58.934;11.166;2023-05-29T00:50:47;1.40;;;0.73;;
13071;SDS011;6602;58.934;11.166;2023-05-29T00:55:48;0.93;;;0.80;;
13071;SDS011;6602;58.934;11.166;2023-05-29T01:00:52;0.60;;;0.60;;
13071;SDS011;6602;58.934;11.166;2023-05-29T01:05:56;1.40;;;1.00;;
13071;SDS011;6602;58.934;11.166;2023-05-29T01:11:00;1.37;;;0.77;;
13071;SDS011;6602;58.934;11.166;2023-05-29T01:16:19;1.33;;;0.60;;
13071;SDS011;6602;58.934;11.166;2023-05-29T01:21:27;1.30;;;0.70;;
13071;SDS011;6602;58.934;11.166;2023-05-29T01:27:01;0.80;;;0.60;;
13071;SDS011;6602;58.934;11.166;2023-05-29T01:32:06;1.53;;;0.70;;
13071;SDS011;6602;58.934;11.166;2023-05-29T01:37:09;0.70;;;0.60;;
13071;SDS011;6602;58.934;11.166;2023-05-29T01:42:09;1.27;;;0.70;;
13071;SDS011;6602;58.934;11.166;2023-05-29T01:47:15;2.23;;;0.50;;
13071;SDS011;6602;58.934;11.166;2023-05-29T01:52:16;3.13;;;0.70;;
13071;SDS011;6602;58.934;11.166;2023-05-29T01:57:17;1.43;;;0.90;;
13071;SDS011;6602;58.934;11.166;2023-05-29T02:02:21;2.40;;;0.70;;
13071;SDS011;6602;58.934;11.166;2023-05-29T02:07:23;1.53;;;0.60;;
13071;SDS011;6602;58.934;11.166;2023-05-29T02:12:24;1.80;;;0.80;;
13071;SDS011;6602;58.934;11.166;2023-05-29T02:17:24;1.70;;;0.40;;
13071;SDS011;6602;58.934;11.166;2023-05-29T02:22:28;1.30;;;0.53;;
13071;SDS011;6602;58.934;11.166;2023-05-29T02:27:29;1.63;;;0.73;;
13071;SDS011;6602;58.934;11.166;2023-05-29T02:32:30;1.53;;;0.60;;
13071;SDS011;6602;58.934;11.166;2023-05-29T02:37:31;2.47;;;1.00;;
13071;SDS011;6602;58.934;11.166;2023-05-29T02:42:32;1.67;;;0.60;;
13071;SDS011;6602;58.934;11.166;2023-05-29T02:47:32;1.27;;;0.57;;
13071;SDS011;6602;58.934;11.166;2023-05-29T02:52:33;2.47;;;0.70;;
13071;SDS011;6602;58.934;11.166;2023-05-29T02:57:37;0.67;;;0.60;;
13071;SDS011;6602;58.934;11.166;2023-05-29T03:02:40;1.03;;;0.70;;
13071;SDS011;6602;58.934;11.166;2023-05-29T03:07:42;1.60;;;0.50;;
13071;SDS011;6602;58.934;11.166;2023-05-29T03:12:44;2.10;;;0.77;;
13071;SDS011;6602;58.934;11.166;2023-05-29T03:17:45;1.23;;;0.87;;
13071;SDS011;6602;58.934;11.166;2023-05-29T03:22:46;1.30;;;0.70;;
13071;SDS011;6602;58.934;11.166;2023-05-29T03:27:47;0.90;;;0.60;;
13071;SDS011;6602;58.934;11.166;2023-05-29T03:32:48;1.07;;;0.80;;
13071;SDS011;6602;58.934;11.166;2023-05-29T03:37:52;3.47;;;0.70;;
13071;SDS011;6602;58.934;11.166;2023-05-29T03:42:53;1.73;;;0.70;;
13071;SDS011;6602;58.934;11.166;2023-05-29T03:47:57;1.63;;;0.63;;
13071;SDS011;6602;58.934;11.166;2023-05-29T03:52:58;1.93;;;1.13;;
13071;SDS011;6602;58.934;11.166;2023-05-29T03:57:59;1.17;;;0.60;;
13071;SDS011;6602;58.934;11.166;2023-05-29T04:03:00;2.40;;;0.63;;
13071;SDS011;6602;58.934;11.166;2023-05-29T04:08:01;1.90;;;0.90;;
13071;SDS011;6602;58.934;11.166;2023-05-29T04:13:04;0.73;;;0.50;;
13071;SDS011;6602;58.934;11.166;2023-05-29T04:18:06;2.23;;;0.70;;
13071;SDS011;6602;58.934;11.166;2023-05-29T04:23:07;2.47;;;1.00;;
13071;SDS011;6602;58.934;11.166;2023-05-29T04:28:09;1.70;;;0.73;;
13071;SDS011;6602;58.934;11.166;2023-05-29T04:33:10;0.67;;;0.63;;
13071;SDS011;6602;58.934;11.166;2023-05-29T04:38:13;1.63;;;0.70;;
13071;SDS011;6602;58.934;11.166;2023-05-29T04:43:14;1.00;;;0.70;;
13071;SDS011;6602;58.934;11.166;2023-05-29T04:48:18;1.10;;;0.60;;
13071;SDS011;6602;58.934;11.166;2023-05-29T04:53:19;1.93;;;0.90;;
13071;SDS011;6602;58.934;11.166;2023-05-29T04:58:25;2.70;;;0.60;;
13071;SDS011;6602;58.934;11.166;2023-05-29T05:03:33;3.27;;;0.70;;
13071;SDS011;6602;58.934;11.166;2023-05-29T05:08:34;1.33;;;0.93;;
13071;SDS011;6602;58.934;11.166;2023-05-29T05:13:35;1.50;;;0.80;;
13071;SDS011;6602;58.934;11.166;2023-05-29T05:18:36;1.77;;;0.70;;
13071;SDS011;6602;58.934;11.166;2023-05-29T05:23:37;2.60;;;0.70;;
13071;SDS011;6602;58.934;11.166;2023-05-29T05:28:38;2.17;;;0.73;;
13071;SDS011;6602;58.934;11.166;2023-05-29T05:33:40;0.77;;;0.70;;
13071;SDS011;6602;58.934;11.166;2023-05-29T05:38:41;1.83;;;0.70;;
13071;SDS011;6602;58.934;11.166;2023-05-29T05:43:41;1.20;;;0.60;;
13071;SDS011;6602;58.934;11.166;2023-05-29T05:48:42;3.97;;;1.00;;
13071;SDS011;6602;58.934;11.166;2023-05-29T05:53:43;0.93;;;0.60;;
13071;SDS011;6602;58.934;11.166;2023-05-29T05:58:47;2.83;;;0.77;;
13071;SDS011;6602;58.934;11.166;2023-05-29T06:03:53;1.33;;;0.73;;
13071;SDS011;6602;58.934;11.166;2023-05-29T06:08:57;1.20;;;0.60;;
13071;SDS011;6602;58.934;11.166;2023-05-29T06:14:03;1.70;;;0.77;;
13071;SDS011;6602;58.934;11.166;2023-05-29T06:19:04;1.15;;;0.60;;
13071;SDS011;6602;58.934;11.166;2023-05-29T06:24:07;1.47;;;0.80;;
13071;SDS011;6602;58.934;11.166;2023-05-29T06:29:08;1.92;;;0.85;;
13071;SDS011;6602;58.934;11.166;2023-05-29T06:34:09;3.03;;;0.93;;
13071;SDS011;6602;58.934;11.166;2023-05-29T06:39:11;2.00;;;0.80;;
13071;SDS011;6602;58.934;11.166;2023-05-29T06:44:12;1.13;;;0.85;;
13071;SDS011;6602;58.934;11.166;2023-05-29T06:49:13;1.90;;;0.77;;
13071;SDS011;6602;58.934;11.166;2023-05-29T06:59:19;2.42;;;0.90;;
13071;SDS011;6602;58.934;11.166;2023-05-29T07:04:23;1.52;;;0.57;;
13071;SDS011;6602;58.934;11.166;2023-05-29T07:09:28;2.85;;;1.08;;
13071;SDS011;6602;58.934;11.166;2023-05-29T07:14:32;2.45;;;0.60;;
13071;SDS011;6602;58.934;11.166;2023-05-29T07:19:34;1.30;;;0.55;;
13071;SDS011;6602;58.934;11.166;2023-05-29T07:24:37;2.38;;;0.70;;
13071;SDS011;6602;58.934;11.166;2023-05-29T07:29:39;1.10;;;0.80;;
13071;SDS011;6602;58.934;11.166;2023-05-29T07:34:43;1.80;;;0.70;;
13071;SDS011;6602;58.934;11.166;2023-05-29T07:39:45;2.80;;;1.10;;
13071;SDS011;6602;58.934;11.166;2023-05-29T07:44:46;2.63;;;0.75;;
13071;SDS011;6602;58.934;11.166;2023-05-29T07:49:49;1.77;;;0.88;;
13071;SDS011;6602;58.934;11.166;2023-05-29T07:54:50;1.48;;;0.80;;
13071;SDS011;6602;58.934;11.166;2023-05-29T07:59:51;3.58;;;0.80;;
13071;SDS011;6602;58.934;11.166;2023-05-29T08:04:52;2.75;;;0.85;;
13071;SDS011;6602;58.934;11.166;2023-05-29T08:09:53;2.28;;;1.20;;
13071;SDS011;6602;58.934;11.166;2023-05-29T08:14:57;2.53;;;0.90;;
13071;SDS011;6602;58.934;11.166;2023-05-29T08:19:58;3.60;;;1.10;;
13071;SDS011;6602;58.934;11.166;2023-05-29T08:25:05;3.00;;;0.90;;
13071;SDS011;6602;58.934;11.166;2023-05-29T08:30:06;3.83;;;0.98;;
13071;SDS011;6602;58.934;11.166;2023-05-29T08:35:16;3.08;;;0.98;;
13071;SDS011;6602;58.934;11.166;2023-05-29T08:40:20;2.40;;;0.95;;
13071;SDS011;6602;58.934;11.166;2023-05-29T08:45:34;2.55;;;0.90;;
13071;SDS011;6602;58.934;11.166;2023-05-29T08:50:43;3.05;;;0.98;;
13071;SDS011;6602;58.934;11.166;2023-05-29T08:55:47;1.75;;;0.90;;
13071;SDS011;6602;58.934;11.166;2023-05-29T09:00:52;3.55;;;0.90;;
13071;SDS011;6602;58.934;11.166;2023-05-29T09:05:57;0.85;;;0.50;;
13071;SDS011;6602;58.934;11.166;2023-05-29T09:11:05;1.17;;;0.63;;
13071;SDS011;6602;58.934;11.166;2023-05-29T09:16:06;2.63;;;0.70;;
13071;SDS011;6602;58.934;11.166;2023-05-29T09:21:08;3.60;;;0.90;;
13071;SDS011;6602;58.934;11.166;2023-05-29T09:26:14;1.45;;;0.57;;
13071;SDS011;6602;58.934;11.166;2023-05-29T09:31:16;2.38;;;0.93;;
13071;SDS011;6602;58.934;11.166;2023-05-29T09:36:22;1.20;;;0.73;;
13071;SDS011;6602;58.934;11.166;2023-05-29T09:41:25;3.40;;;0.93;;
13071;SDS011;6602;58.934;11.166;2023-05-29T09:46:26;2.03;;;0.90;;
13071;SDS011;6602;58.934;11.166;2023-05-29T09:51:30;2.53;;;0.90;;
13071;SDS011;6602;58.934;11.166;2023-05-29T09:56:32;4.35;;;0.95;;
13071;SDS011;6602;58.934;11.166;2023-05-29T10:01:34;4.35;;;0.90;;
13071;SDS011;6602;58.934;11.166;2023-05-29T10:06:36;4.28;;;0.80;;
13071;SDS011;6602;58.934;11.166;2023-05-29T10:11:47;2.08;;;0.88;;
13071;SDS011;6602;58.934;11.166;2023-05-29T10:16:52;2.15;;;0.90;;
13071;SDS011;6602;58.934;11.166;2023-05-29T10:21:57;1.70;;;0.90;;
13071;SDS011;6602;58.934;11.166;2023-05-29T10:27:06;2.28;;;0.90;;
13071;SDS011;6602;58.934;11.166;2023-05-29T10:42:45;3.28;;;1.02;;
13071;SDS011;6602;58.934;11.166;2023-05-29T10:53:23;1.63;;;0.90;;
13071;SDS011;6602;58.934;11.166;2023-05-29T10:58:26;2.03;;;1.10;;
13071;SDS011;6602;58.934;11.166;2023-05-29T11:03:31;2.28;;;0.90;;
13071;SDS011;6602;58.934;11.166;2023-05-29T11:08:36;1.45;;;0.70;;
13071;SDS011;6602;58.934;11.166;2023-05-29T11:13:52;1.02;;;0.55;;
13071;SDS011;6602;58.934;11.166;2023-05-29T11:19:05;1.35;;;0.80;;
13071;SDS011;6602;58.934;11.166;2023-05-29T11:24:16;3.60;;;0.80;;
13071;SDS011;6602;58.934;11.166;2023-05-29T11:29:26;3.55;;;0.88;;
13071;SDS011;6602;58.934;11.166;2023-05-29T11:34:28;0.60;;;0.40;;
13071;SDS011;6602;58.934;11.166;2023-05-29T11:39:37;1.27;;;0.70;;
13071;SDS011;6602;58.934;11.166;2023-05-29T11:44:38;1.33;;;0.50;;
13071;SDS011;6602;58.934;11.166;2023-05-29T11:49:39;1.63;;;0.70;;
13071;SDS011;6602;58.934;11.166;2023-05-29T11:54:40;1.27;;;0.70;;
13071;SDS011;6602;58.934;11.166;2023-05-29T11:59:48;2.22;;;0.85;;
13071;SDS011;6602;58.934;11.166;2023-05-29T12:05:04;1.65;;;0.70;;
13071;SDS011;6602;58.934;11.166;2023-05-29T12:10:11;3.65;;;1.00;;
13071;SDS011;6602;58.934;11.166;2023-05-29T12:15:14;1.98;;;0.80;;
13071;SDS011;6602;58.934;11.166;2023-05-29T12:20:17;1.58;;;0.70;;
13071;SDS011;6602;58.934;11.166;2023-05-29T12:25:21;2.47;;;0.60;;
13071;SDS011;6602;58.934;11.166;2023-05-29T12:30:24;0.88;;;0.57;;
13071;SDS011;6602;58.934;11.166;2023-05-29T12:35:26;1.98;;;0.70;;
13071;SDS011;6602;58.934;11.166;2023-05-29T12:40:28;1.35;;;0.57;;
13071;SDS011;6602;58.934;11.166;2023-05-29T12:45:36;2.65;;;0.90;;
13071;SDS011;6602;58.934;11.166;2023-05-29T12:50:38;1.45;;;0.93;;
13071;SDS011;6602;58.934;11.166;2023-05-29T12:55:40;2.30;;;0.80;;
13071;SDS011;6602;58.934;11.166;2023-05-29T13:00:43;1.35;;;0.77;;
13071;SDS011;6602;58.934;11.166;2023-05-29T13:05:46;1.05;;;0.60;;
13071;SDS011;6602;58.934;11.166;2023-05-29T13:10:47;2.03;;;0.60;;
13071;SDS011;6602;58.934;11.166;2023-05-29T13:15:47;1.88;;;0.70;;
13071;SDS011;6602;58.934;11.166;2023-05-29T13:20:48;2.28;;;0.80;;
13071;SDS011;6602;58.934;11.166;2023-05-29T13:25:49;4.22;;;1.00;;
13071;SDS011;6602;58.934;11.166;2023-05-29T13:30:50;2.08;;;0.60;;
13071;SDS011;6602;58.934;11.166;2023-05-29T13:35:52;2.30;;;0.82;;
13071;SDS011;6602;58.934;11.166;2023-05-29T13:40:53;1.42;;;0.50;;
13071;SDS011;6602;58.934;11.166;2023-05-29T13:45:53;2.08;;;0.88;;
13071;SDS011;6602;58.934;11.166;2023-05-29T13:50:54;2.05;;;0.70;;
13071;SDS011;6602;58.934;11.166;2023-05-29T13:55:55;2.17;;;0.98;;
13071;SDS011;6602;58.934;11.166;2023-05-29T14:00:56;2.72;;;1.20;;
13071;SDS011;6602;58.934;11.166;2023-05-29T14:06:00;2.22;;;0.90;;
13071;SDS011;6602;58.934;11.166;2023-05-29T14:11:02;2.35;;;0.90;;
13071;SDS011;6602;58.934;11.166;2023-05-29T14:16:03;4.13;;;0.90;;
13071;SDS011;6602;58.934;11.166;2023-05-29T14:21:05;3.70;;;0.90;;
13071;SDS011;6602;58.934;11.166;2023-05-29T14:26:05;2.60;;;1.17;;
13071;SDS011;6602;58.934;11.166;2023-05-29T14:31:07;3.10;;;1.25;;
13071;SDS011;6602;58.934;11.166;2023-05-29T14:36:08;1.67;;;0.85;;
13071;SDS011;6602;58.934;11.166;2023-05-29T14:41:09;5.43;;;1.10;;
13071;SDS011;6602;58.934;11.166;2023-05-29T14:46:10;2.25;;;0.90;;
13071;SDS011;6602;58.934;11.166;2023-05-29T14:51:11;1.90;;;0.98;;
13071;SDS011;6602;58.934;11.166;2023-05-29T14:56:12;3.25;;;1.30;;
13071;SDS011;6602;58.934;11.166;2023-05-29T15:01:13;3.95;;;1.13;;
13071;SDS011;6602;58.934;11.166;2023-05-29T15:06:15;4.38;;;1.25;;
13071;SDS011;6602;58.934;11.166;2023-05-29T15:11:16;2.97;;;1.15;;
13071;SDS011;6602;58.934;11.166;2023-05-29T15:16:19;2.92;;;1.00;;
13071;SDS011;6602;58.934;11.166;2023-05-29T15:21:20;5.38;;;1.08;;
13071;SDS011;6602;58.934;11.166;2023-05-29T15:26:20;2.60;;;1.17;;
13071;SDS011;6602;58.934;11.166;2023-05-29T15:31:21;4.15;;;1.50;;
13071;SDS011;6602;58.934;11.166;2023-05-29T15:36:25;4.97;;;1.48;;
13071;SDS011;6602;58.934;11.166;2023-05-29T15:41:26;3.03;;;1.08;;
13071;SDS011;6602;58.934;11.166;2023-05-29T15:46:29;4.18;;;1.40;;
13071;SDS011;6602;58.934;11.166;2023-05-29T15:51:30;5.90;;;1.77;;
13071;SDS011;6602;58.934;11.166;2023-05-29T15:56:33;5.45;;;1.50;;
13071;SDS011;6602;58.934;11.166;2023-05-29T16:01:34;5.90;;;1.40;;
13071;SDS011;6602;58.934;11.166;2023-05-29T16:06:35;3.75;;;0.90;;
13071;SDS011;6602;58.934;11.166;2023-05-29T16:11:36;3.67;;;1.30;;
13071;SDS011;6602;58.934;11.166;2023-05-29T16:16:37;6.97;;;1.60;;
13071;SDS011;6602;58.934;11.166;2023-05-29T16:21:38;4.35;;;1.20;;
13071;SDS011;6602;58.934;11.166;2023-05-29T16:26:41;3.67;;;1.30;;
13071;SDS011;6602;58.934;11.166;2023-05-29T16:31:42;7.10;;;1.67;;
13071;SDS011;6602;58.934;11.166;2023-05-29T16:36:45;4.07;;;1.70;;
13071;SDS011;6602;58.934;11.166;2023-05-29T16:41:47;11.27;;;2.00;;
13071;SDS011;6602;58.934;11.166;2023-05-29T16:46:50;5.03;;;1.67;;
13071;SDS011;6602;58.934;11.166;2023-05-29T16:51:53;5.63;;;1.50;;
13071;SDS011;6602;58.934;11.166;2023-05-29T16:56:53;6.53;;;1.73;;
13071;SDS011;6602;58.934;11.166;2023-05-29T17:01:54;4.18;;;1.25;;
13071;SDS011;6602;58.934;11.166;2023-05-29T17:06:55;7.72;;;1.95;;
13071;SDS011;6602;58.934;11.166;2023-05-29T17:11:56;5.82;;;1.40;;
13071;SDS011;6602;58.934;11.166;2023-05-29T17:16:57;9.07;;;1.42;;
13071;SDS011;6602;58.934;11.166;2023-05-29T17:21:58;3.03;;;1.40;;
13071;SDS011;6602;58.934;11.166;2023-05-29T17:26:59;6.72;;;1.77;;
13071;SDS011;6602;58.934;11.166;2023-05-29T17:32:01;4.20;;;1.20;;
13071;SDS011;6602;58.934;11.166;2023-05-29T17:37:02;3.88;;;1.60;;
13071;SDS011;6602;58.934;11.166;2023-05-29T17:42:03;2.05;;;1.15;;
13071;SDS011;6602;58.934;11.166;2023-05-29T17:47:05;4.00;;;1.60;;
13071;SDS011;6602;58.934;11.166;2023-05-29T17:52:06;4.90;;;1.55;;
13071;SDS011;6602;58.934;11.166;2023-05-29T17:57:08;4.47;;;1.65;;
13071;SDS011;6602;58.934;11.166;2023-05-29T18:02:14;6.47;;;1.35;;
13071;SDS011;6602;58.934;11.166;2023-05-29T18:07:15;5.20;;;1.50;;
13071;SDS011;6602;58.934;11.166;2023-05-29T18:12:17;6.18;;;1.30;;
13071;SDS011;6602;58.934;11.166;2023-05-29T18:17:19;8.38;;;1.38;;
13071;SDS011;6602;58.934;11.166;2023-05-29T18:22:20;5.15;;;1.65;;
13071;SDS011;6602;58.934;11.166;2023-05-29T18:27:21;3.08;;;1.10;;
13071;SDS011;6602;58.934;11.166;2023-05-29T18:32:22;9.38;;;1.77;;
13071;SDS011;6602;58.934;11.166;2023-05-29T18:37:22;4.85;;;1.50;;
13071;SDS011;6602;58.934;11.166;2023-05-29T18:42:23;7.25;;;1.60;;
13071;SDS011;6602;58.934;11.166;2023-05-29T18:47:25;5.28;;;1.48;;
13071;SDS011;6602;58.934;11.166;2023-05-29T18:52:26;4.25;;;1.38;;
13071;SDS011;6602;58.934;11.166;2023-05-29T18:57:27;7.20;;;2.53;;
13071;SDS011;6602;58.934;11.166;2023-05-29T19:02:29;7.75;;;1.48;;
13071;SDS011;6602;58.934;11.166;2023-05-29T19:07:30;5.75;;;1.40;;
13071;SDS011;6602;58.934;11.166;2023-05-29T19:12:31;5.60;;;1.80;;
13071;SDS011;6602;58.934;11.166;2023-05-29T19:17:32;4.95;;;1.60;;
13071;SDS011;6602;58.934;11.166;2023-05-29T19:22:35;7.25;;;1.92;;
13071;SDS011;6602;58.934;11.166;2023-05-29T19:27:36;8.63;;;1.70;;
13071;SDS011;6602;58.934;11.166;2023-05-29T19:32:37;4.78;;;1.40;;
13071;SDS011;6602;58.934;11.166;2023-05-29T19:37:38;4.50;;;1.42;;
13071;SDS011;6602;58.934;11.166;2023-05-29T19:42:40;5.10;;;1.42;;
13071;SDS011;6602;58.934;11.166;2023-05-29T19:47:41;5.07;;;1.65;;
13071;SDS011;6602;58.934;11.166;2023-05-29T19:52:42;6.18;;;1.80;;
13071;SDS011;6602;58.934;11.166;2023-05-29T19:57:43;6.05;;;1.60;;
13071;SDS011;6602;58.934;11.166;2023-05-29T20:02:47;4.45;;;1.50;;
13071;SDS011;6602;58.934;11.166;2023-05-29T20:07:49;11.80;;;2.40;;
13071;SDS011;6602;58.934;11.166;2023-05-29T20:12:50;8.57;;;1.63;;
13071;SDS011;6602;58.934;11.166;2023-05-29T20:17:51;6.18;;;2.08;;
13071;SDS011;6602;58.934;11.166;2023-05-29T20:22:55;7.32;;;2.00;;
13071;SDS011;6602;58.934;11.166;2023-05-29T20:27:56;9.77;;;1.85;;
13071;SDS011;6602;58.934;11.166;2023-05-29T20:32:57;5.43;;;1.88;;
13071;SDS011;6602;58.934;11.166;2023-05-29T20:37:58;7.43;;;2.08;;
13071;SDS011;6602;58.934;11.166;2023-05-29T20:43:01;6.55;;;1.63;;
13071;SDS011;6602;58.934;11.166;2023-05-29T20:48:06;10.70;;;1.98;;
13071;SDS011;6602;58.934;11.166;2023-05-29T20:53:07;9.87;;;1.67;;
13071;SDS011;6602;58.934;11.166;2023-05-29T20:58:08;6.82;;;1.83;;
13071;SDS011;6602;58.934;11.166;2023-05-29T21:03:09;9.97;;;2.17;;
13071;SDS011;6602;58.934;11.166;2023-05-29T21:08:09;7.25;;;1.98;;
13071;SDS011;6602;58.934;11.166;2023-05-29T21:13:14;5.37;;;2.03;;
13071;SDS011;6602;58.934;11.166;2023-05-29T21:18:15;6.32;;;2.08;;
13071;SDS011;6602;58.934;11.166;2023-05-29T21:23:16;8.13;;;2.37;;
13071;SDS011;6602;58.934;11.166;2023-05-29T21:28:17;8.90;;;3.00;;
13071;SDS011;6602;58.934;11.166;2023-05-29T21:33:18;9.97;;;2.57;;
13071;SDS011;6602;58.934;11.166;2023-05-29T21:38:19;7.60;;;2.20;;
13071;SDS011;6602;58.934;11.166;2023-05-29T21:43:20;7.00;;;2.03;;
13071;SDS011;6602;58.934;11.166;2023-05-29T21:48:21;10.77;;;2.40;;
13071;SDS011;6602;58.934;11.166;2023-05-29T21:53:26;6.83;;;1.90;;
13071;SDS011;6602;58.934;11.166;2023-05-29T21:58:27;7.53;;;2.60;;
13071;SDS011;6602;58.934;11.166;2023-05-29T22:03:28;10.03;;;2.60;;
13071;SDS011;6602;58.934;11.166;2023-05-29T22:08:42;10.80;;;2.50;;
13071;SDS011;6602;58.934;11.166;2023-05-29T22:13:44;8.93;;;2.07;;
13071;SDS011;6602;58.934;11.166;2023-05-29T22:18:45;6.27;;;2.03;;
13071;SDS011;6602;58.934;11.166;2023-05-29T22:23:47;6.90;;;1.87;;
13071;SDS011;6602;58.934;11.166;2023-05-29T22:28:49;8.93;;;2.23;;
13071;SDS011;6602;58.934;11.166;2023-05-29T22:33:52;5.63;;;1.77;;
13071;SDS011;6602;58.934;11.166;2023-05-29T22:38:52;10.60;;;2.33;;
13071;SDS011;6602;58.934;11.166;2023-05-29T22:43:53;5.60;;;2.10;;
13071;SDS011;6602;58.934;11.166;2023-05-29T22:48:55;5.47;;;1.63;;
13071;SDS011;6602;58.934;11.166;2023-05-29T22:53:58;6.03;;;2.17;;
13071;SDS011;6602;58.934;11.166;2023-05-29T22:59:03;5.50;;;2.03;;
13071;SDS011;6602;58.934;11.166;2023-05-29T23:04:04;9.67;;;2.40;;
13071;SDS011;6602;58.934;11.166;2023-05-29T23:09:06;6.10;;;2.00;;
13071;SDS011;6602;58.934;11.166;2023-05-29T23:14:07;8.03;;;2.43;;
13071;SDS011;6602;58.934;11.166;2023-05-29T23:19:08;7.47;;;1.90;;
13071;SDS011;6602;58.934;11.166;2023-05-29T23:24:09;6.60;;;2.17;;
13071;SDS011;6602;58.934;11.166;2023-05-29T23:29:11;4.67;;;2.00;;
13071;SDS011;6602;58.934;11.166;2023-05-29T23:34:12;4.70;;;2.03;;
13071;SDS011;6602;58.934;11.166;2023-05-29T23:39:16;10.33;;;2.30;;
13071;SDS011;6602;58.934;11.166;2023-05-29T23:44:17;6.50;;;2.20;;
13071;SDS011;6602;58.934;11.166;2023-05-29T23:49:18;6.13;;;2.00;;
13071;SDS011;6602;58.934;11.166;2023-05-29T23:54:19;8.87;;;2.10;;
13071;SDS011;6602;58.934;11.166;2023-05-29T23:59:20;5.83;;;2.57;;
